Monday, October 23, 2017, 1:22 PM EDT
Back to Local

KJHW, Jamestown, Chautauqua County/jamestown Airport

Location: Jamestown, NY, United States Lat: 42.15
Local Time: 1:22 PM EDT (17:22 GMT) Lon: -79.267
Time Zone: US/Eastern Elev: 1722 ft

Show me the last for .
Show Decoded

2017-10-23 12:56 METAR KJHW 231656Z AUTO 16011G18KT 10SM BKN040 OVC095 18/12 A3000 RMK AO2 SLP156
                 T01780122 =
2017-10-23 11:56 METAR KJHW 231556Z AUTO 16007G14KT 10SM BKN044 OVC060 17/12 A3003 RMK AO2 SLP169
                 T01670117 =
2017-10-23 10:56 METAR KJHW 231456Z AUTO 16010KT 10SM BKN055 OVC100 16/11 A3005 RMK AO2 SLP177
                 T01560111 58012 =
2017-10-23 09:56 METAR KJHW 231356Z AUTO 16014G22KT 10SM SCT090 16/11 A3007 RMK AO2 SLP182
                 T01560111 =
2017-10-23 08:56 METAR KJHW 231256Z AUTO 17012KT 10SM CLR 14/11 A3008 RMK AO2 SLP189 T01440111 =
2017-10-23 07:56 METAR KJHW 231156Z AUTO 17009KT 10SM CLR 13/11 A3009 RMK AO2 SLP190 T01330111
                 10156 20133 56016 =
2017-10-23 06:56 METAR KJHW 231056Z AUTO 17013G19KT 10SM CLR 14/11 A3010 RMK AO2 SLP193 T01390111
                 =
2017-10-23 05:56 METAR KJHW 230956Z AUTO 17012G18KT 10SM CLR 14/11 A3012 RMK AO2 SLP199 T01440111
                 TSNO =
2017-10-23 04:56 METAR KJHW 230856Z AUTO 18010G15KT 10SM CLR 14/11 A3014 RMK AO2 SLP204 T01440111
                 56011 =
2017-10-23 03:56 METAR KJHW 230756Z AUTO 17012G16KT 10SM CLR 15/12 A3014 RMK AO2 SLP205 T01500117
                 =
2017-10-23 02:56 METAR KJHW 230656Z AUTO 18008G16KT 10SM CLR 16/12 A3016 RMK AO2 SLP211 T01560117
                 =
2017-10-23 01:56 METAR KJHW 230556Z AUTO 17008KT 10SM CLR 16/11 A3017 RMK AO2 SLP214 T01560111
                 10178 20156 56011 =
2017-10-23 00:56 METAR KJHW 230456Z AUTO 17009KT 10SM CLR 16/11 A3018 RMK AO2 SLP218 T01610111 =
2017-10-22 23:56 METAR KJHW 230356Z AUTO 17011G15KT 10SM CLR 16/11 A3019 RMK AO2 SLP223 T01610111
                 402280106 =
2017-10-22 22:56 METAR KJHW 230256Z AUTO 17008KT 10SM CLR 17/11 A3020 RMK AO2 SLP229 T01670106
                 57007 =
2017-10-22 21:56 METAR KJHW 230156Z AUTO 17008KT 10SM CLR 17/11 A3021 RMK AO2 SLP233 T01720106 =
2017-10-22 20:56 METAR KJHW 230056Z AUTO 17008KT 10SM CLR 17/10 A3022 RMK AO2 SLP236 T01670100 =
2017-10-22 19:56 METAR KJHW 222356Z AUTO 17006KT 10SM CLR 18/09 A3023 RMK AO2 SLP239 T01780094
                 10228 20178 53004 =
2017-10-22 18:56 METAR KJHW 222256Z AUTO 16004KT 10SM CLR 19/10 A3021 RMK AO2 SLP232 T01890100 =
2017-10-22 17:56 METAR KJHW 222156Z AUTO 19005KT 10SM CLR 21/11 A3020 RMK AO2 SLP230 T02060106 =
2017-10-22 16:56 METAR KJHW 222056Z AUTO 18006KT 10SM CLR 22/10 A3021 RMK AO2 SLP231 T02220100
                 56016 =
2017-10-22 15:56 METAR KJHW 221956Z AUTO 17007KT 10SM CLR 23/11 A3022 RMK AO2 SLP234 T02280106 =
2017-10-22 14:56 METAR KJHW 221856Z AUTO 18007KT 10SM CLR 22/11 A3024 RMK AO2 SLP239 T02220106 =
2017-10-22 13:56 METAR KJHW 221756Z AUTO 20011G14KT 10SM CLR 22/09 A3026 RMK AO2 SLP249 T02220094
                 10222 20111 58015 =

Support USWX by starting your Amazon purchase here.